Time;durP1;ratioP1;P1;durP2;ratioP2;P2;SDS_P1;SDS_P2;PMS_P1;PMS_P2;Temp;Humidity;BMP_temperature;BMP_pressure;BME280_temperature;BME280_humidity;BME280_pressure;Samples;Min_cycle;Max_cycle;Signal;HPM_P1;HPM_P2
2021/08/08 00:02:06;;;;;;;1999.90;999.90;;;;;;;17.99;71.42;95613.66;5111302;28;20207;-65
2021/08/08 00:04:33;;;;;;;1999.90;999.90;;;;;;;17.91;71.97;95619.06;5111190;28;20283;-65
2021/08/08 00:07:00;;;;;;;1999.90;999.90;;;;;;;17.85;71.88;95617.78;5110726;28;20223;-65
2021/08/08 00:09:27;;;;;;;1999.90;999.90;;;;;;;17.46;75.39;95625.34;5095859;28;20199;-65
2021/08/08 00:11:55;;;;;;;1999.90;999.90;;;;;;;16.89;78.96;95627.41;5090372;28;20581;-65
2021/08/08 00:14:23;;;;;;;1999.90;999.90;;;;;;;16.39;82.09;95620.59;5090321;28;20680;-65
2021/08/08 00:16:51;;;;;;;1999.90;999.90;;;;;;;16.42;82.95;95629.69;5090317;28;20192;-65
2021/08/08 00:19:18;;;;;;;1999.90;999.90;;;;;;;16.49;82.74;95627.31;5090307;28;20200;-65
2021/08/08 00:21:45;;;;;;;1999.90;999.90;;;;;;;16.28;83.80;95636.03;5090158;28;20286;-65
2021/08/08 00:24:12;;;;;;;1999.90;999.90;;;;;;;16.20;84.02;95622.97;5090158;28;20287;-65
2021/08/08 00:26:40;;;;;;;1999.90;999.90;;;;;;;16.13;84.30;95626.16;5090318;28;20598;-64
2021/08/08 00:29:07;;;;;;;1999.90;999.90;;;;;;;16.09;84.76;95627.13;5089906;28;20290;-64
2021/08/08 00:31:36;;;;;;;1999.90;999.90;;;;;;;16.05;84.81;95631.47;5090327;28;20195;-64
2021/08/08 00:34:03;;;;;;;1999.90;999.90;;;;;;;16.05;85.06;95629.63;5089997;28;20239;-63
2021/08/08 00:36:33;;;;;;;1999.90;999.90;;;;;;;16.04;84.39;95635.94;5089841;28;20303;-64
2021/08/08 00:39:00;;;;;;;1999.90;999.90;;;;;;;15.98;84.76;95636.50;5089840;28;20682;-63
2021/08/08 00:41:28;;;;;;;1999.90;999.90;;;;;;;15.90;84.91;95636.25;5104504;28;20309;-66
2021/08/08 00:43:55;;;;;;;1999.90;999.90;;;;;;;15.96;84.21;95634.19;5110199;28;20223;-64
2021/08/08 00:46:23;;;;;;;1999.90;999.90;;;;;;;15.70;85.04;95639.66;5107092;27;20219;-63
2021/08/08 00:48:52;;;;;;;1999.90;999.90;;;;;;;15.58;85.89;95644.09;5110059;28;20671;-65
2021/08/08 00:51:19;;;;;;;1999.90;999.90;;;;;;;15.51;86.00;95647.22;5109967;28;20199;-65
2021/08/08 00:53:47;;;;;;;1999.90;999.90;;;;;;;15.41;86.87;95653.59;5110175;28;20282;-65
2021/08/08 00:56:16;;;;;;;1999.90;999.90;;;;;;;15.30;87.37;95656.88;5110201;28;20588;-65
2021/08/08 00:58:43;;;;;;;1999.90;999.90;;;;;;;15.30;87.73;95655.03;5109817;28;20289;-64
2021/08/08 01:01:14;;;;;;;1999.90;999.90;;;;;;;15.30;87.58;95655.03;5109778;28;20730;-64
2021/08/08 01:03:43;;;;;;;1999.90;999.90;;;;;;;15.29;87.19;95658.75;5109812;28;20191;-64
2021/08/08 01:06:17;;;;;;;1999.90;999.90;;;;;;;15.26;87.04;95659.38;5109540;28;20195;-63
2021/08/08 01:08:48;;;;;;;1999.90;999.90;;;;;;;15.23;86.97;95660.03;5110057;28;20183;-64
2021/08/08 01:11:17;;;;;;;1999.90;999.90;;;;;;;15.14;87.40;95661.94;5109939;28;20218;-64
2021/08/08 01:13:47;;;;;;;1999.90;999.90;;;;;;;15.27;87.10;95665.41;5109976;28;20256;-64
2021/08/08 01:16:15;;;;;;;1999.90;999.90;;;;;;;15.23;86.62;95665.28;5109837;28;20191;-65
2021/08/08 01:18:45;;;;;;;1999.90;999.90;;;;;;;15.01;87.44;95658.47;5109633;28;20202;-63
2021/08/08 01:21:14;;;;;;;1999.90;999.90;;;;;;;14.92;87.79;95659.59;5109515;28;20249;-64
2021/08/08 01:23:44;;;;;;;1999.90;999.90;;;;;;;14.91;88.07;95664.06;5109604;28;20199;-65
2021/08/08 01:26:13;;;;;;;1999.90;999.90;;;;;;;14.85;88.27;95659.31;5109441;28;20207;-65
2021/08/08 01:28:41;;;;;;;1999.90;999.90;;;;;;;14.79;89.08;95663.22;5109438;28;20198;-64
2021/08/08 01:31:08;;;;;;;1999.90;999.90;;;;;;;14.74;89.31;95669.41;5109280;28;20191;-63
2021/08/08 01:33:35;;;;;;;1999.90;999.90;;;;;;;14.76;89.55;95667.22;5109700;28;20954;-64
2021/08/08 01:36:02;;;;;;;1999.90;999.90;;;;;;;14.78;89.61;95666.91;5109651;28;20650;-63
2021/08/08 01:38:32;;;;;;;1999.90;999.90;;;;;;;14.71;89.87;95661.38;5109279;28;20702;-64
2021/08/08 01:41:02;;;;;;;1999.90;999.90;;;;;;;14.65;90.51;95666.03;5100583;28;20230;-64
2021/08/08 01:43:33;;;;;;;1999.90;999.90;;;;;;;14.40;90.02;95670.25;5089041;28;20340;-64
2021/08/08 01:46:05;;;;;;;1999.90;999.90;;;;;;;14.37;90.93;95665.66;5089609;28;20271;-64
2021/08/08 01:48:34;;;;;;;1999.90;999.90;;;;;;;14.46;90.46;95663.78;5089077;28;20265;-64
2021/08/08 01:51:02;;;;;;;1999.90;999.90;;;;;;;14.45;90.62;95664.09;5088907;28;20303;-64
2021/08/08 01:53:30;;;;;;;1999.90;999.90;;;;;;;14.41;90.68;95656.13;5088741;28;20196;-64
2021/08/08 01:55:57;;;;;;;1999.90;999.90;;;;;;;14.47;90.52;95659.34;5088879;28;20242;-64
2021/08/08 01:58:27;;;;;;;1999.90;999.90;;;;;;;14.41;91.27;95656.13;5088875;28;20192;-64
2021/08/08 02:00:56;;;;;;;1999.90;999.90;;;;;;;14.35;91.76;95652.09;5092113;28;20286;-64
2021/08/08 02:03:33;;;;;;;1999.90;999.90;;;;;;;14.41;91.21;95658.72;5112819;28;20285;-64
2021/08/08 02:06:01;;;;;;;1999.90;999.90;;;;;;;14.37;90.43;95660.44;5113079;28;20199;-64
2021/08/08 02:08:28;;;;;;;1999.90;999.90;;;;;;;14.32;91.03;95662.44;5112687;28;20541;-64
2021/08/08 02:10:55;;;;;;;1999.90;999.90;;;;;;;14.09;91.51;95665.25;5112044;28;20992;-65
2021/08/08 02:13:23;;;;;;;1999.90;999.90;;;;;;;14.11;92.14;95673.53;5113000;28;20286;-64
2021/08/08 02:15:51;;;;;;;1999.90;999.90;;;;;;;14.23;91.86;95663.22;5113016;28;20683;-64
2021/08/08 02:18:19;;;;;;;1999.90;999.90;;;;;;;14.28;91.48;95672.75;5112753;28;20237;-64
2021/08/08 02:20:47;;;;;;;1999.90;999.90;;;;;;;14.05;92.14;95672.16;5112600;28;20199;-65
2021/08/08 02:23:15;;;;;;;1999.90;999.90;;;;;;;14.07;92.57;95682.31;5112777;28;20199;-65
2021/08/08 02:25:42;;;;;;;1999.90;999.90;;;;;;;14.12;92.05;95674.31;5113128;28;20256;-65
2021/08/08 02:28:09;;;;;;;1999.90;999.90;;;;;;;14.34;90.98;95687.19;5112818;28;20218;-65
2021/08/08 02:30:37;;;;;;;1999.90;999.90;;;;;;;14.27;91.04;95686.13;5112821;28;20294;-65
2021/08/08 02:33:05;;;;;;;1999.90;999.90;;;;;;;14.18;91.54;95680.91;5112990;28;20612;-64
2021/08/08 02:35:34;;;;;;;1999.90;999.90;;;;;;;14.21;91.90;95688.13;5112804;28;20286;-64
2021/08/08 02:38:01;;;;;;;1999.90;999.90;;;;;;;14.26;92.08;95687.97;5112674;28;20290;-64
2021/08/08 02:40:28;;;;;;;1999.90;999.90;;;;;;;14.26;92.10;95685.34;5111691;28;20227;-64
2021/08/08 02:42:55;;;;;;;1999.90;999.90;;;;;;;14.27;91.95;95692.13;5112286;28;20215;-64
2021/08/08 02:45:22;;;;;;;1999.90;999.90;;;;;;;14.14;92.53;95693.84;5112795;28;20203;-64
2021/08/08 02:47:50;;;;;;;1999.90;999.90;;;;;;;14.19;92.01;95690.31;5112220;28;20306;-64
2021/08/08 02:50:17;;;;;;;1999.90;999.90;;;;;;;14.12;92.45;95690.00;5112401;28;20650;-64
2021/08/08 02:52:46;;;;;;;1999.90;999.90;;;;;;;14.19;92.51;95688.47;5112322;28;20244;-64
2021/08/08 02:55:13;;;;;;;1999.90;999.90;;;;;;;14.09;92.93;95690.63;5112613;28;20586;-63
2021/08/08 02:57:40;;;;;;;1999.90;999.90;;;;;;;14.19;93.18;95700.75;5112185;28;20198;-64
2021/08/08 03:00:09;;;;;;;1999.90;999.90;;;;;;;14.09;93.72;95698.47;5112444;28;20195;-63
2021/08/08 03:02:36;;;;;;;1999.90;999.90;;;;;;;14.08;93.72;95699.53;5112158;28;20758;-64
2021/08/08 03:05:04;;;;;;;1999.90;999.90;;;;;;;13.90;94.28;95713.72;5112425;28;20233;-63
2021/08/08 03:07:31;;;;;;;1999.90;999.90;;;;;;;13.87;94.21;95711.69;5112200;28;20280;-64
2021/08/08 03:10:00;;;;;;;1999.90;999.90;;;;;;;13.83;94.24;95714.16;5112055;28;20541;-63
2021/08/08 03:12:27;;;;;;;1999.90;999.90;;;;;;;13.94;93.55;95720.63;5110676;28;20210;-64
2021/08/08 03:14:54;;;;;;;1999.90;999.90;;;;;;;13.91;93.54;95715.22;5111960;28;20242;-65
2021/08/08 03:17:21;;;;;;;1999.90;999.90;;;;;;;13.95;93.60;95711.69;5111847;28;20282;-64
2021/08/08 03:19:49;;;;;;;1999.90;999.90;;;;;;;13.94;94.17;95719.84;5111876;28;20203;-64
2021/08/08 03:22:16;;;;;;;1999.90;999.90;;;;;;;14.04;94.36;95716.91;5111772;28;20209;-64
2021/08/08 03:24:43;;;;;;;1999.90;999.90;;;;;;;14.05;94.40;95716.59;5111654;28;20274;-65
2021/08/08 03:27:12;;;;;;;1999.90;999.90;;;;;;;14.02;93.93;95711.22;5111823;28;20665;-65
2021/08/08 03:29:39;;;;;;;1999.90;999.90;;;;;;;14.13;93.88;95710.59;5111891;28;20246;-64
2021/08/08 03:32:07;;;;;;;1999.90;999.90;;;;;;;14.23;93.66;95712.13;5111562;28;20207;-64
2021/08/08 03:34:34;;;;;;;1999.90;999.90;;;;;;;14.12;94.15;95708.28;5111452;28;20223;-64
2021/08/08 03:37:01;;;;;;;1999.90;999.90;;;;;;;13.95;94.60;95716.13;5111461;28;20671;-65
2021/08/08 03:39:29;;;;;;;1999.90;999.90;;;;;;;13.81;94.22;95716.28;5106231;28;20639;-65
2021/08/08 03:41:56;;;;;;;1999.90;999.90;;;;;;;13.96;93.51;95733.34;5109962;28;20683;-65
2021/08/08 03:44:25;;;;;;;1999.90;999.90;;;;;;;13.72;92.58;95724.16;5111571;28;20298;-65
2021/08/08 03:46:52;;;;;;;1999.90;999.90;;;;;;;13.75;92.85;95723.53;5111228;28;20239;-65
2021/08/08 03:49:19;;;;;;;1999.90;999.90;;;;;;;13.78;93.17;95722.91;5106919;28;20199;-65
2021/08/08 03:51:46;;;;;;;1999.90;999.90;;;;;;;13.90;92.90;95719.66;5090986;28;20936;-65
2021/08/08 03:54:14;;;;;;;1999.90;999.90;;;;;;;13.99;93.20;95723.06;5090766;28;20965;-65
2021/08/08 03:56:42;;;;;;;1999.90;999.90;;;;;;;13.87;93.61;95729.97;5090677;28;20202;-64
2021/08/08 03:59:10;;;;;;;1999.90;999.90;;;;;;;14.06;93.50;95730.44;5090539;28;20249;-65
2021/08/08 04:01:38;;;;;;;1999.90;999.90;;;;;;;13.95;92.65;95737.81;5091063;28;20195;-65
2021/08/08 04:04:06;;;;;;;1999.90;999.90;;;;;;;13.93;92.87;95739.19;5090569;28;20199;-66
2021/08/08 04:06:33;;;;;;;1999.90;999.90;;;;;;;13.87;93.34;95735.19;5090505;28;20203;-65
2021/08/08 04:09:00;;;;;;;1999.90;999.90;;;;;;;14.08;92.73;95743.97;5090352;28;20220;-65
2021/08/08 04:11:27;;;;;;;1999.90;999.90;;;;;;;14.04;92.75;95745.66;5090488;28;20199;-65
2021/08/08 04:13:54;;;;;;;1999.90;999.90;;;;;;;13.96;93.97;95749.81;5090334;28;20195;-65
2021/08/08 04:16:22;;;;;;;1999.90;999.90;;;;;;;14.29;93.53;95736.25;5090483;28;20210;-65
2021/08/08 04:18:51;;;;;;;1999.90;999.90;;;;;;;14.74;93.21;95752.34;5090571;28;20203;-65
2021/08/08 04:21:18;;;;;;;1999.90;999.90;;;;;;;15.18;90.80;95751.09;5090250;28;20199;-65
2021/08/08 04:23:45;;;;;;;1999.90;999.90;;;;;;;15.65;89.02;95747.28;5090103;28;20204;-65
2021/08/08 04:26:12;;;;;;;1999.90;999.90;;;;;;;16.22;85.48;95750.09;5090292;28;20208;-64
2021/08/08 04:28:41;;;;;;;1999.90;999.90;;;;;;;16.77;83.32;95747.09;5090104;28;20223;-64
2021/08/08 04:31:09;;;;;;;1999.90;999.90;;;;;;;17.17;81.27;95751.72;5090172;28;20231;-65
2021/08/08 04:33:36;;;;;;;1999.90;999.90;;;;;;;17.36;81.60;95748.53;5090261;28;20245;-65
2021/08/08 04:36:05;;;;;;;1999.90;999.90;;;;;;;17.80;80.73;95754.72;5090359;28;20196;-64
2021/08/08 04:38:33;;;;;;;1999.90;999.90;;;;;;;18.26;78.39;95751.53;5089797;28;20199;-64
2021/08/08 04:41:00;;;;;;;1999.90;999.90;;;;;;;18.76;74.66;95755.47;5096409;28;20231;-65
2021/08/08 04:43:27;;;;;;;1999.90;999.90;;;;;;;19.00;72.35;95765.84;5090197;28;20552;-65
2021/08/08 04:45:54;;;;;;;1999.90;999.90;;;;;;;19.27;71.40;95764.22;5090250;28;20258;-64
2021/08/08 04:48:21;;;;;;;1999.90;999.90;;;;;;;19.47;71.50;95760.56;5089903;28;20224;-65
2021/08/08 04:50:49;;;;;;;1999.90;999.90;;;;;;;19.51;70.41;95761.41;5089834;28;20203;-65
2021/08/08 04:53:19;;;;;;;1999.90;999.90;;;;;;;19.49;71.00;95765.50;5090020;28;20299;-65
2021/08/08 04:55:47;;;;;;;1999.90;999.90;;;;;;;19.12;71.98;95765.00;5089702;28;20592;-65
2021/08/08 04:58:15;;;;;;;1999.90;999.90;;;;;;;18.81;73.54;95755.22;5089593;28;20192;-65
2021/08/08 05:00:42;;;;;;;1999.90;999.90;;;;;;;18.91;73.97;95760.75;5089722;28;20290;-64
2021/08/08 05:03:09;;;;;;;1999.90;999.90;;;;;;;18.77;73.77;95757.78;5089405;28;20204;-64
2021/08/08 05:05:36;;;;;;;1999.90;999.90;;;;;;;18.80;73.94;95762.34;5089484;28;20200;-64
2021/08/08 05:08:03;;;;;;;1999.90;999.90;;;;;;;18.83;74.25;95771.44;5089280;28;20710;-64
2021/08/08 05:10:32;;;;;;;1999.90;999.90;;;;;;;19.09;73.91;95778.84;5089506;28;20215;-65
2021/08/08 05:12:59;;;;;;;1999.90;999.90;;;;;;;19.21;73.41;95776.13;5089457;28;20200;-65
2021/08/08 05:15:26;;;;;;;1999.90;999.90;;;;;;;19.13;72.99;95771.78;5089186;28;20210;-65
2021/08/08 05:17:54;;;;;;;1999.90;999.90;;;;;;;19.23;73.28;95779.16;5089161;28;20195;-65
2021/08/08 05:20:21;;;;;;;1999.90;999.90;;;;;;;19.31;72.56;95784.28;5089463;28;20196;-65
2021/08/08 05:22:48;;;;;;;1999.90;999.90;;;;;;;19.17;74.74;95777.91;5089113;28;20196;-65
2021/08/08 05:25:15;;;;;;;1999.90;999.90;;;;;;;19.39;74.76;95787.06;5089127;28;20204;-65
2021/08/08 05:27:44;;;;;;;1999.90;999.90;;;;;;;19.67;73.09;95785.88;5088850;28;20195;-65
2021/08/08 05:30:12;;;;;;;1999.90;999.90;;;;;;;19.54;72.80;95784.44;5088975;28;20199;-65
2021/08/08 05:32:40;;;;;;;1999.90;999.90;;;;;;;19.53;72.42;95785.53;5089080;28;20584;-66
2021/08/08 05:35:08;;;;;;;1999.90;999.90;;;;;;;19.46;72.70;95790.69;5088314;28;20203;-66
2021/08/08 05:37:35;;;;;;;1999.90;999.90;;;;;;;19.67;71.96;95791.16;5089128;28;20671;-65
2021/08/08 05:40:06;;;;;;;1999.90;999.90;;;;;;;19.94;69.77;95793.97;5095483;28;20234;-65
2021/08/08 05:42:34;;;;;;;1999.90;999.90;;;;;;;19.92;73.30;95790.91;5089051;28;20187;-65
2021/08/08 05:45:03;;;;;;;1999.90;999.90;;;;;;;20.02;74.09;95800.94;5088801;28;20303;-66
2021/08/08 05:47:30;;;;;;;1999.90;999.90;;;;;;;20.08;72.88;95792.38;5089058;28;20207;-66
2021/08/08 05:49:57;;;;;;;1999.90;999.90;;;;;;;20.25;72.56;95793.84;5090031;28;20713;-65
2021/08/08 05:52:25;;;;;;;1999.90;999.90;;;;;;;20.35;74.14;95798.59;5108425;28;20282;-65
2021/08/08 05:54:52;;;;;;;1999.90;999.90;;;;;;;20.27;74.72;95789.00;5109118;28;20203;-66
2021/08/08 05:57:19;;;;;;;1999.90;999.90;;;;;;;20.66;72.43;95792.41;5109049;28;20203;-65
2021/08/08 05:59:47;;;;;;;1999.90;999.90;;;;;;;20.85;71.94;95787.09;5109084;28;20191;-65
2021/08/08 06:02:15;;;;;;;1999.90;999.90;;;;;;;20.94;70.63;95792.13;5109326;28;20578;-66
2021/08/08 06:04:42;;;;;;;1999.90;999.90;;;;;;;21.17;69.05;95784.97;5109020;28;20678;-65
2021/08/08 06:07:09;;;;;;;1999.90;999.90;;;;;;;21.32;68.82;95789.38;5109119;28;20207;-65
2021/08/08 06:09:36;;;;;;;1999.90;999.90;;;;;;;21.43;68.54;95787.66;5108904;28;20222;-65
2021/08/08 06:12:04;;;;;;;1999.90;999.90;;;;;;;21.52;67.67;95790.06;5109082;28;20210;-65
2021/08/08 06:14:31;;;;;;;1999.90;999.90;;;;;;;21.62;67.88;95783.41;5109207;28;20586;-65
2021/08/08 06:16:58;;;;;;;1999.90;999.90;;;;;;;22.10;63.87;95787.88;5109030;28;20662;-66
2021/08/08 06:19:27;;;;;;;1999.90;999.90;;;;;;;22.37;64.98;95785.13;5108881;28;20206;-66
2021/08/08 06:21:54;;;;;;;1999.90;999.90;;;;;;;22.44;61.14;95793.16;5109162;28;20202;-65
2021/08/08 06:24:21;;;;;;;1999.90;999.90;;;;;;;22.19;61.95;95790.22;5109187;28;20592;-65
2021/08/08 06:26:49;;;;;;;1999.90;999.90;;;;;;;22.44;59.98;95801.13;5108691;28;20761;-67
2021/08/08 06:29:16;;;;;;;1999.90;999.90;;;;;;;22.70;59.01;95804.47;5108694;28;20223;-67
2021/08/08 06:31:43;;;;;;;1999.90;999.90;;;;;;;23.03;57.09;95797.56;5109025;28;20604;-66
2021/08/08 06:34:10;;;;;;;1999.90;999.90;;;;;;;23.24;56.41;95799.66;5108993;28;20195;-66
2021/08/08 06:36:39;;;;;;;1999.90;999.90;;;;;;;23.47;56.26;95792.28;5108599;28;20195;-65
2021/08/08 06:39:06;;;;;;;1999.90;999.90;;;;;;;23.64;54.05;95793.53;5106789;28;20203;-66
2021/08/08 06:41:34;;;;;;;1999.90;999.90;;;;;;;23.99;51.40;95797.16;5103966;28;20243;-65
2021/08/08 06:44:02;;;;;;;1999.90;999.90;;;;;;;23.95;51.22;95783.13;5108920;28;20226;-68
2021/08/08 06:46:29;;;;;;;1999.90;999.90;;;;;;;23.98;51.13;95787.66;5109936;28;20207;-66
2021/08/08 06:48:57;;;;;;;1999.90;999.90;;;;;;;24.28;50.18;95786.69;5112325;28;20229;-66
2021/08/08 06:51:24;;;;;;;1999.90;999.90;;;;;;;24.46;50.52;95784.84;5112389;28;20199;-65
2021/08/08 06:53:53;;;;;;;1999.90;999.90;;;;;;;24.74;47.68;95778.84;5112363;28;20214;-65
2021/08/08 06:56:20;;;;;;;1999.90;999.90;;;;;;;24.89;46.33;95783.09;5112322;28;20207;-65
2021/08/08 06:58:47;;;;;;;1999.90;999.90;;;;;;;24.84;45.77;95792.16;5112472;28;20337;-65
2021/08/08 07:01:17;;;;;;;1999.90;999.90;;;;;;;24.66;46.17;95791.34;5112446;28;20202;-66
2021/08/08 07:03:45;;;;;;;1999.90;999.90;;;;;;;24.73;46.18;95786.06;5112066;28;20198;-65
2021/08/08 07:06:12;;;;;;;1999.90;999.90;;;;;;;24.66;46.83;95794.00;5112458;28;20242;-65
2021/08/08 07:08:39;;;;;;;1999.90;999.90;;;;;;;24.71;47.40;95788.34;5111911;28;20310;-66
2021/08/08 07:11:08;;;;;;;1999.90;999.90;;;;;;;24.86;47.55;95789.88;5111967;28;20230;-66
2021/08/08 07:13:38;;;;;;;1999.90;999.90;;;;;;;25.10;47.70;95788.44;5112272;28;20201;-65
2021/08/08 07:16:07;;;;;;;1999.90;999.90;;;;;;;25.22;46.47;95787.28;5112297;28;20296;-67
2021/08/08 07:18:34;;;;;;;1999.90;999.90;;;;;;;25.39;47.33;95785.75;5111782;28;20191;-67
2021/08/08 07:21:01;;;;;;;1999.90;999.90;;;;;;;25.66;46.25;95781.56;5111782;28;20195;-67
2021/08/08 07:23:28;;;;;;;1999.90;999.90;;;;;;;25.85;46.44;95783.06;5111830;28;20191;-67
2021/08/08 07:25:56;;;;;;;1999.90;999.90;;;;;;;25.79;44.97;95782.69;5111802;28;20199;-67
2021/08/08 07:28:25;;;;;;;1999.90;999.90;;;;;;;25.69;48.30;95776.25;5111590;28;20638;-67
2021/08/08 07:30:52;;;;;;;1999.90;999.90;;;;;;;26.19;46.22;95781.44;5111700;28;20671;-66
2021/08/08 07:33:19;;;;;;;1999.90;999.90;;;;;;;26.27;44.60;95774.97;5111568;28;20286;-66
2021/08/08 07:35:48;;;;;;;1999.90;999.90;;;;;;;26.17;45.61;95783.72;5111880;28;20643;-66
2021/08/08 07:38:15;;;;;;;1999.90;999.90;;;;;;;26.37;45.74;95776.81;5111520;28;20242;-66
2021/08/08 07:40:42;;;;;;;1999.90;999.90;;;;;;;26.46;45.89;95774.47;5104512;28;20261;-66
2021/08/08 07:43:10;;;;;;;1999.90;999.90;;;;;;;26.67;46.05;95773.63;5110832;28;20195;-66
2021/08/08 07:45:39;;;;;;;1999.90;999.90;;;;;;;26.88;44.38;95768.19;5093423;28;20192;-67
2021/08/08 07:48:07;;;;;;;1999.90;999.90;;;;;;;26.89;45.13;95771.59;5091072;28;20203;-66
2021/08/08 07:50:35;;;;;;;1999.90;999.90;;;;;;;26.88;45.36;95768.19;5091566;28;20298;-65
2021/08/08 07:53:02;;;;;;;1999.90;999.90;;;;;;;27.12;42.97;95766.47;5091245;28;20660;-66
2021/08/08 07:55:29;;;;;;;1999.90;999.90;;;;;;;27.16;43.83;95766.44;5091269;28;20196;-65
2021/08/08 07:57:57;;;;;;;1999.90;999.90;;;;;;;27.34;43.74;95757.16;5090070;28;20234;-66
2021/08/08 08:00:24;;;;;;;1999.90;999.90;;;;;;;27.58;42.59;95760.78;5090856;28;20751;-65
2021/08/08 08:02:53;;;;;;;1999.90;999.90;;;;;;;27.73;43.67;95758.72;5090606;28;20214;-66
2021/08/08 08:05:20;;;;;;;1999.90;999.90;;;;;;;27.80;42.84;95759.38;5090842;28;20617;-66
2021/08/08 08:07:47;;;;;;;1999.90;999.90;;;;;;;28.04;40.04;95764.88;5090708;28;20269;-66
2021/08/08 08:10:15;;;;;;;1999.90;999.90;;;;;;;28.00;40.39;95759.56;5090442;28;20725;-66
2021/08/08 08:12:42;;;;;;;1999.90;999.90;;;;;;;28.15;39.20;95760.94;5090451;28;20196;-66
2021/08/08 08:15:10;;;;;;;1999.90;999.90;;;;;;;28.21;39.77;95761.25;5090378;28;20231;-66
2021/08/08 08:17:37;;;;;;;1999.90;999.90;;;;;;;28.13;41.21;95765.19;5090231;28;20283;-66
2021/08/08 08:20:07;;;;;;;1999.90;999.90;;;;;;;28.01;41.12;95755.72;5090281;28;20257;-66
2021/08/08 08:22:34;;;;;;;1999.90;999.90;;;;;;;28.07;39.71;95762.16;5090214;28;20286;-66
2021/08/08 08:25:02;;;;;;;1999.90;999.90;;;;;;;28.24;39.59;95761.19;5090070;28;20933;-66
2021/08/08 08:27:29;;;;;;;1999.90;999.90;;;;;;;28.48;40.94;95762.06;5090123;28;20196;-66
2021/08/08 08:29:57;;;;;;;1999.90;999.90;;;;;;;28.63;38.33;95759.97;5089900;28;20314;-66
2021/08/08 08:32:24;;;;;;;1999.90;999.90;;;;;;;28.75;38.00;95764.78;5090230;28;20208;-66
2021/08/08 08:34:52;;;;;;;1999.90;999.90;;;;;;;28.98;37.52;95769.41;5090352;28;20203;-66
2021/08/08 08:37:20;;;;;;;1999.90;999.90;;;;;;;29.08;36.13;95765.81;5090418;28;20264;-65
2021/08/08 08:39:48;;;;;;;1999.90;999.90;;;;;;;29.18;36.10;95758.78;5096470;28;20280;-67
2021/08/08 08:42:15;;;;;;;1999.90;999.90;;;;;;;29.29;36.23;95748.66;5089964;28;20202;-65
2021/08/08 08:44:42;;;;;;;1999.90;999.90;;;;;;;29.33;32.93;95752.81;5089756;28;20199;-66
2021/08/08 08:47:15;;;;;;;1999.90;999.90;;;;;;;29.27;33.33;95745.63;5089802;28;20246;-67
2021/08/08 08:49:47;;;;;;;1999.90;999.90;;;;;;;29.21;33.46;95747.25;5089687;28;20717;-66
2021/08/08 08:52:20;;;;;;;1999.90;999.90;;;;;;;29.19;34.79;95744.97;5090006;28;20203;-66
2021/08/08 08:54:49;;;;;;;1999.90;999.90;;;;;;;29.13;35.86;95751.97;5089540;28;20195;-67
2021/08/08 08:57:17;;;;;;;1999.90;999.90;;;;;;;28.62;35.38;95745.81;5089583;28;20739;-67
2021/08/08 08:59:46;;;;;;;1999.90;999.90;;;;;;;29.10;35.24;95748.19;5089490;28;20232;-66
2021/08/08 09:02:14;;;;;;;1999.90;999.90;;;;;;;29.29;37.23;95744.03;5089783;28;20199;-66
2021/08/08 09:04:42;;;;;;;1999.90;999.90;;;;;;;29.27;36.45;95740.28;5089446;28;20199;-66
2021/08/08 09:07:10;;;;;;;1999.90;999.90;;;;;;;29.26;37.09;95744.09;5089521;28;20256;-67
2021/08/08 09:09:39;;;;;;;1999.90;999.90;;;;;;;29.56;36.95;95749.34;5088547;28;20262;-66
2021/08/08 09:12:09;;;;;;;1999.90;999.90;;;;;;;29.86;36.91;95741.16;5089197;28;20247;-67
2021/08/08 09:14:37;;;;;;;1999.90;999.90;;;;;;;30.18;34.54;95735.19;5089455;28;20290;-67
2021/08/08 09:17:05;;;;;;;1999.90;999.90;;;;;;;30.23;34.31;95737.38;5089287;28;20202;-67
2021/08/08 09:19:34;;;;;;;1999.90;999.90;;;;;;;30.06;34.85;95737.72;5089477;28;20206;-68
2021/08/08 09:22:02;;;;;;;1999.90;999.90;;;;;;;30.17;35.58;95735.59;5089266;28;20564;-67
2021/08/08 09:24:31;;;;;;;1999.90;999.90;;;;;;;30.26;35.54;95738.47;5089089;28;20229;-68
2021/08/08 09:27:04;;;;;;;1999.90;999.90;;;;;;;30.33;34.48;95738.34;5089044;28;20192;-67
2021/08/08 09:29:34;;;;;;;1999.90;999.90;;;;;;;30.38;34.15;95734.41;5088843;28;20868;-68
2021/08/08 09:32:02;;;;;;;1999.90;999.90;;;;;;;30.27;34.50;95732.69;5089351;28;20298;-67
2021/08/08 09:34:32;;;;;;;1999.90;999.90;;;;;;;30.40;34.13;95735.50;5089057;28;20200;-67
2021/08/08 09:37:01;;;;;;;1999.90;999.90;;;;;;;30.28;33.55;95730.78;5088910;28;20200;-67
2021/08/08 09:39:31;;;;;;;1999.90;999.90;;;;;;;30.46;33.86;95728.50;5093612;28;20189;-65
2021/08/08 09:42:13;;;;;;;1999.90;999.90;;;;;;;30.63;33.87;95727.34;5090154;28;20195;-65
2021/08/08 09:44:53;;;;;;;1999.90;999.90;;;;;;;30.77;33.25;95727.03;5090046;28;20211;-67
2021/08/08 09:47:21;;;;;;;1999.90;999.90;;;;;;;30.87;33.82;95722.59;5109206;28;20183;-67
2021/08/08 09:50:04;;;;;;;1999.90;999.90;;;;;;;31.01;33.58;95721.50;5109310;28;20227;-68
2021/08/08 09:52:32;;;;;;;1999.90;999.90;;;;;;;30.82;33.93;95725.78;5109683;28;20206;-66
2021/08/08 09:54:59;;;;;;;1999.90;999.90;;;;;;;30.89;33.96;95719.47;5109425;28;20231;-67
2021/08/08 09:57:37;;;;;;;1999.90;999.90;;;;;;;31.00;34.32;95725.34;5109049;28;20268;-67
2021/08/08 10:00:07;;;;;;;1999.90;999.90;;;;;;;31.00;32.85;95725.34;5109153;28;20182;-67
2021/08/08 10:02:35;;;;;;;1999.90;999.90;;;;;;;31.01;32.57;95718.81;5108995;28;20187;-67
2021/08/08 10:05:03;;;;;;;1999.90;999.90;;;;;;;31.18;32.19;95720.34;5109351;28;20226;-67
2021/08/08 10:07:34;;;;;;;1999.90;999.90;;;;;;;31.27;31.54;95707.06;5109234;28;20199;-68
2021/08/08 10:10:02;;;;;;;1999.90;999.90;;;;;;;31.16;33.08;95706.56;5109092;28;20211;-68
2021/08/08 10:12:43;;;;;;;1999.90;999.90;;;;;;;31.19;31.65;95708.41;5109113;28;20195;-66
2021/08/08 10:15:12;;;;;;;1999.90;999.90;;;;;;;30.95;33.55;95707.06;5109049;28;20193;-67
2021/08/08 10:17:42;;;;;;;1999.90;999.90;;;;;;;31.13;32.83;95708.16;5108732;28;20234;-67
2021/08/08 10:20:10;;;;;;;1999.90;999.90;;;;;;;31.15;32.51;95705.06;5109593;28;20191;-67
2021/08/08 10:22:45;;;;;;;1999.90;999.90;;;;;;;31.18;34.00;95710.34;5112076;28;20198;-68
2021/08/08 10:25:13;;;;;;;1999.90;999.90;;;;;;;31.03;32.98;95711.13;5113129;28;20187;-66
2021/08/08 10:27:40;;;;;;;1999.90;999.90;;;;;;;31.27;31.33;95704.38;5112855;28;20243;-68
2021/08/08 10:30:08;;;;;;;1999.90;999.90;;;;;;;31.31;31.38;95702.34;5113090;28;20219;-68
2021/08/08 10:32:37;;;;;;;1999.90;999.90;;;;;;;31.27;30.78;95698.25;5112713;28;20237;-66
2021/08/08 10:35:13;;;;;;;1999.90;999.90;;;;;;;31.14;31.84;95703.53;5112975;28;20191;-67
2021/08/08 10:37:41;;;;;;;1999.90;999.90;;;;;;;30.78;31.01;95701.69;5112661;28;20605;-66
2021/08/08 10:40:09;;;;;;;1999.90;999.90;;;;;;;31.09;33.80;95701.38;5105644;28;20601;-66
2021/08/08 10:42:44;;;;;;;1999.90;999.90;;;;;;;31.26;32.07;95689.44;5112721;28;20202;-67
2021/08/08 10:45:23;;;;;;;1999.90;999.90;;;;;;;31.56;31.81;95690.97;5112525;28;20209;-67
2021/08/08 10:48:02;;;;;;;1999.90;999.90;;;;;;;31.78;29.48;95691.91;5112760;28;20180;-66
2021/08/08 10:50:41;;;;;;;1999.90;999.90;;;;;;;31.90;30.45;95687.75;5112829;28;20235;-68
2021/08/08 10:53:21;;;;;;;1999.90;999.90;;;;;;;32.21;29.92;95688.81;5112811;28;20278;-67
2021/08/08 10:55:50;;;;;;;1999.90;999.90;;;;;;;32.24;27.41;95690.63;5112760;28;20197;-67
2021/08/08 10:58:20;;;;;;;1999.90;999.90;;;;;;;32.44;28.88;95690.41;5112422;28;20195;-67
2021/08/08 11:00:48;;;;;;;1999.90;999.90;;;;;;;32.37;28.78;95687.97;5112253;28;20202;-67